sensor_id;sensor_type;location;lat;lon;timestamp;pressure;altitude;pressure_sealevel;temperature;humidity
20860;BME280;10590;48.154;11.514;2023-04-22T00:02:45;95172.09;;;9.45;68.90
20860;BME280;10590;48.154;11.514;2023-04-22T00:08:07;95175.25;;;9.30;70.35
20860;BME280;10590;48.154;11.514;2023-04-22T00:13:29;95173.78;;;8.77;72.28
20860;BME280;10590;48.154;11.514;2023-04-22T00:18:52;95164.81;;;9.16;70.79
20860;BME280;10590;48.154;11.514;2023-04-22T00:24:13;95169.31;;;9.33;70.51
20860;BME280;10590;48.154;11.514;2023-04-22T00:29:35;95159.34;;;9.13;70.63
20860;BME280;10590;48.154;11.514;2023-04-22T00:34:58;95167.69;;;8.77;72.33
20860;BME280;10590;48.154;11.514;2023-04-22T00:40:20;95164.69;;;8.96;72.18
20860;BME280;10590;48.154;11.514;2023-04-22T00:45:42;95160.00;;;8.58;72.26
20860;BME280;10590;48.154;11.514;2023-04-22T00:51:06;95151.56;;;8.73;72.49
20860;BME280;10590;48.154;11.514;2023-04-22T00:56:29;95158.06;;;8.24;74.94
20860;BME280;10590;48.154;11.514;2023-04-22T01:01:52;95165.50;;;8.70;73.92
20860;BME280;10590;48.154;11.514;2023-04-22T01:07:17;95168.78;;;8.67;73.82
20860;BME280;10590;48.154;11.514;2023-04-22T01:12:40;95142.25;;;7.93;76.16
20860;BME280;10590;48.154;11.514;2023-04-22T01:18:02;95165.75;;;8.25;75.40
20860;BME280;10590;48.154;11.514;2023-04-22T01:23:25;95163.91;;;8.43;74.90
20860;BME280;10590;48.154;11.514;2023-04-22T01:28:47;95170.47;;;8.37;75.03
20860;BME280;10590;48.154;11.514;2023-04-22T01:34:09;95151.53;;;8.30;74.70
20860;BME280;10590;48.154;11.514;2023-04-22T01:39:34;95168.59;;;8.38;74.67
20860;BME280;10590;48.154;11.514;2023-04-22T01:44:55;95174.94;;;8.11;76.07
20860;BME280;10590;48.154;11.514;2023-04-22T01:50:17;95171.69;;;8.31;74.64
20860;BME280;10590;48.154;11.514;2023-04-22T01:55:40;95169.13;;;7.91;77.04
20860;BME280;10590;48.154;11.514;2023-04-22T02:01:03;95164.94;;;8.16;75.54
20860;BME280;10590;48.154;11.514;2023-04-22T02:06:25;95174.63;;;7.64;77.67
20860;BME280;10590;48.154;11.514;2023-04-22T02:11:48;95166.50;;;8.17;75.76
20860;BME280;10590;48.154;11.514;2023-04-22T02:17:10;95169.47;;;8.07;75.82
20860;BME280;10590;48.154;11.514;2023-04-22T02:22:32;95176.81;;;8.02;75.76
20860;BME280;10590;48.154;11.514;2023-04-22T02:27:55;95156.91;;;7.82;75.50
20860;BME280;10590;48.154;11.514;2023-04-22T02:33:17;95166.94;;;7.93;75.45
20860;BME280;10590;48.154;11.514;2023-04-22T02:38:38;95170.19;;;7.82;75.67
20860;BME280;10590;48.154;11.514;2023-04-22T02:44:01;95156.19;;;7.59;75.85
20860;BME280;10590;48.154;11.514;2023-04-22T02:49:23;95170.75;;;7.70;75.65
20860;BME280;10590;48.154;11.514;2023-04-22T02:54:45;95172.63;;;7.70;76.24
20860;BME280;10590;48.154;11.514;2023-04-22T03:00:09;95161.06;;;7.74;76.11
20860;BME280;10590;48.154;11.514;2023-04-22T03:05:30;95156.22;;;7.67;75.95
20860;BME280;10590;48.154;11.514;2023-04-22T03:10:52;95149.47;;;7.61;76.07
20860;BME280;10590;48.154;11.514;2023-04-22T03:16:17;95158.56;;;7.29;77.29
20860;BME280;10590;48.154;11.514;2023-04-22T03:21:38;95153.00;;;6.86;79.37
20860;BME280;10590;48.154;11.514;2023-04-22T03:27:00;95148.03;;;7.16;77.63
20860;BME280;10590;48.154;11.514;2023-04-22T03:32:24;95145.06;;;7.17;78.61
20860;BME280;10590;48.154;11.514;2023-04-22T03:37:46;95152.94;;;7.31;77.83
20860;BME280;10590;48.154;11.514;2023-04-22T03:43:08;95162.47;;;7.32;77.16
20860;BME280;10590;48.154;11.514;2023-04-22T03:48:31;95158.94;;;7.14;77.75
20860;BME280;10590;48.154;11.514;2023-04-22T03:53:55;95170.31;;;7.37;76.93
20860;BME280;10590;48.154;11.514;2023-04-22T03:59:16;95164.56;;;7.13;77.93
20860;BME280;10590;48.154;11.514;2023-04-22T04:04:39;95158.66;;;7.16;77.03
20860;BME280;10590;48.154;11.514;2023-04-22T04:10:01;95164.13;;;7.19;77.01
20860;BME280;10590;48.154;11.514;2023-04-22T04:15:23;95171.84;;;6.85;78.28
20860;BME280;10590;48.154;11.514;2023-04-22T04:20:46;95166.59;;;6.49;79.65
20860;BME280;10590;48.154;11.514;2023-04-22T04:26:09;95170.34;;;6.92;78.84
20860;BME280;10590;48.154;11.514;2023-04-22T04:31:31;95152.22;;;7.08;78.10
20860;BME280;10590;48.154;11.514;2023-04-22T04:36:54;95165.81;;;6.48;79.99
20860;BME280;10590;48.154;11.514;2023-04-22T04:42:16;95162.75;;;6.55;80.03
20860;BME280;10590;48.154;11.514;2023-04-22T04:47:39;95162.59;;;7.27;78.36
20860;BME280;10590;48.154;11.514;2023-04-22T04:53:02;95170.78;;;7.39;76.88
20860;BME280;10590;48.154;11.514;2023-04-22T04:58:24;95176.00;;;7.22;77.88
20860;BME280;10590;48.154;11.514;2023-04-22T05:03:46;95168.03;;;7.22;78.78
20860;BME280;10590;48.154;11.514;2023-04-22T05:09:09;95169.47;;;8.07;76.07
20860;BME280;10590;48.154;11.514;2023-04-22T05:14:31;95157.34;;;8.41;74.01
20860;BME280;10590;48.154;11.514;2023-04-22T05:19:52;95164.69;;;8.61;73.22
20860;BME280;10590;48.154;11.514;2023-04-22T05:25:16;95164.31;;;9.23;71.05
20860;BME280;10590;48.154;11.514;2023-04-22T05:30:37;95144.69;;;9.83;69.33
20860;BME280;10590;48.154;11.514;2023-04-22T05:35:59;95161.97;;;10.36;67.49
20860;BME280;10590;48.154;11.514;2023-04-22T05:41:22;95163.41;;;10.75;65.31
20860;BME280;10590;48.154;11.514;2023-04-22T05:46:44;95184.00;;;11.07;64.08
20860;BME280;10590;48.154;11.514;2023-04-22T05:52:06;95182.50;;;11.52;62.11
20860;BME280;10590;48.154;11.514;2023-04-22T05:57:30;95186.56;;;12.43;56.15
20860;BME280;10590;48.154;11.514;2023-04-22T06:02:51;95181.97;;;14.46;49.89
20860;BME280;10590;48.154;11.514;2023-04-22T06:08:13;95213.16;;;15.44;46.59
20860;BME280;10590;48.154;11.514;2023-04-22T06:13:36;95204.78;;;15.87;43.87
20860;BME280;10590;48.154;11.514;2023-04-22T06:18:58;95198.63;;;18.30;38.69
20860;BME280;10590;48.154;11.514;2023-04-22T06:24:21;95209.41;;;19.58;35.97
20860;BME280;10590;48.154;11.514;2023-04-22T06:29:44;95206.81;;;15.13;45.67
20860;BME280;10590;48.154;11.514;2023-04-22T06:35:07;95206.72;;;14.55;47.91
20860;BME280;10590;48.154;11.514;2023-04-22T06:40:29;95210.00;;;16.26;41.88
20860;BME280;10590;48.154;11.514;2023-04-22T06:45:52;95212.41;;;16.80;39.83
20860;BME280;10590;48.154;11.514;2023-04-22T06:51:14;95195.16;;;17.86;37.55
20860;BME280;10590;48.154;11.514;2023-04-22T06:56:35;95207.97;;;20.14;33.30
20860;BME280;10590;48.154;11.514;2023-04-22T07:02:01;95210.25;;;21.08;32.44
20860;BME280;10590;48.154;11.514;2023-04-22T07:07:22;95205.88;;;21.42;31.62
20860;BME280;10590;48.154;11.514;2023-04-22T07:12:44;95194.97;;;21.53;30.01
20860;BME280;10590;48.154;11.514;2023-04-22T07:18:07;95195.59;;;20.59;33.68
20860;BME280;10590;48.154;11.514;2023-04-22T07:23:29;95195.59;;;19.95;33.45
20860;BME280;10590;48.154;11.514;2023-04-22T07:28:50;95188.94;;;18.77;35.44
20860;BME280;10590;48.154;11.514;2023-04-22T07:34:13;95186.03;;;18.49;35.15
20860;BME280;10590;48.154;11.514;2023-04-22T07:39:36;95186.09;;;21.42;29.91
20860;BME280;10590;48.154;11.514;2023-04-22T07:44:58;95187.91;;;21.70;33.21
20860;BME280;10590;48.154;11.514;2023-04-22T07:50:21;95193.75;;;22.27;29.80
20860;BME280;10590;48.154;11.514;2023-04-22T07:55:43;95187.16;;;23.10;28.56
20860;BME280;10590;48.154;11.514;2023-04-22T08:01:05;95184.41;;;23.14;28.81
20860;BME280;10590;48.154;11.514;2023-04-22T08:06:28;95187.59;;;22.19;28.04
20860;BME280;10590;48.154;11.514;2023-04-22T08:11:51;95188.75;;;23.08;26.58
20860;BME280;10590;48.154;11.514;2023-04-22T08:17:14;95184.00;;;23.80;26.86
20860;BME280;10590;48.154;11.514;2023-04-22T08:22:38;95181.94;;;24.14;25.82
20860;BME280;10590;48.154;11.514;2023-04-22T08:27:59;95184.25;;;24.66;24.87
20860;BME280;10590;48.154;11.514;2023-04-22T08:33:21;95183.97;;;24.37;26.65
20860;BME280;10590;48.154;11.514;2023-04-22T08:38:44;95196.03;;;25.26;25.28
20860;BME280;10590;48.154;11.514;2023-04-22T08:44:05;95192.88;;;25.08;24.09
20860;BME280;10590;48.154;11.514;2023-04-22T08:49:29;95191.09;;;24.98;25.15
20860;BME280;10590;48.154;11.514;2023-04-22T08:54:52;95178.59;;;24.77;24.09
20860;BME280;10590;48.154;11.514;2023-04-22T09:00:14;95182.38;;;25.26;23.14
20860;BME280;10590;48.154;11.514;2023-04-22T09:05:39;95180.03;;;23.85;23.49
20860;BME280;10590;48.154;11.514;2023-04-22T09:11:03;95178.38;;;26.07;23.03
20860;BME280;10590;48.154;11.514;2023-04-22T09:16:25;95181.25;;;27.26;21.88
20860;BME280;10590;48.154;11.514;2023-04-22T09:21:46;95170.63;;;26.38;21.61
20860;BME280;10590;48.154;11.514;2023-04-22T09:27:09;95165.25;;;27.24;19.37
20860;BME280;10590;48.154;11.514;2023-04-22T09:32:31;95150.59;;;28.11;18.54
20860;BME280;10590;48.154;11.514;2023-04-22T09:37:53;95169.44;;;25.86;21.29
20860;BME280;10590;48.154;11.514;2023-04-22T09:43:18;95158.50;;;27.42;23.95
20860;BME280;10590;48.154;11.514;2023-04-22T09:48:41;95153.75;;;24.91;22.17
20860;BME280;10590;48.154;11.514;2023-04-22T09:54:06;95146.75;;;25.33;23.38
20860;BME280;10590;48.154;11.514;2023-04-22T09:59:31;95141.28;;;26.06;21.56
20860;BME280;10590;48.154;11.514;2023-04-22T10:04:52;95148.81;;;26.01;23.13
20860;BME280;10590;48.154;11.514;2023-04-22T10:10:15;95126.66;;;28.37;19.92
20860;BME280;10590;48.154;11.514;2023-04-22T10:15:41;95122.28;;;27.88;21.19
20860;BME280;10590;48.154;11.514;2023-04-22T10:21:03;95121.56;;;27.34;20.03
20860;BME280;10590;48.154;11.514;2023-04-22T10:26:40;95124.41;;;27.43;21.50
20860;BME280;10590;48.154;11.514;2023-04-22T10:32:05;95119.00;;;27.26;21.04
20860;BME280;10590;48.154;11.514;2023-04-22T10:37:27;95117.31;;;26.87;22.25
20860;BME280;10590;48.154;11.514;2023-04-22T10:42:50;95114.91;;;24.17;25.88
20860;BME280;10590;48.154;11.514;2023-04-22T10:48:14;95110.22;;;26.61;23.42
20860;BME280;10590;48.154;11.514;2023-04-22T10:53:36;95106.78;;;27.44;21.84
20860;BME280;10590;48.154;11.514;2023-04-22T10:59:14;95099.50;;;26.66;22.02
20860;BME280;10590;48.154;11.514;2023-04-22T11:04:37;95102.72;;;25.84;23.30
20860;BME280;10590;48.154;11.514;2023-04-22T11:10:00;95097.53;;;26.06;23.71
20860;BME280;10590;48.154;11.514;2023-04-22T11:15:24;95087.88;;;25.65;24.00
20860;BME280;10590;48.154;11.514;2023-04-22T11:20:49;95084.56;;;28.52;20.83
20860;BME280;10590;48.154;11.514;2023-04-22T11:26:12;95080.16;;;27.95;20.85
20860;BME280;10590;48.154;11.514;2023-04-22T11:31:34;95080.84;;;26.32;22.03
20860;BME280;10590;48.154;11.514;2023-04-22T11:36:58;95080.94;;;28.90;20.46
20860;BME280;10590;48.154;11.514;2023-04-22T11:42:20;95086.19;;;26.98;22.01
20860;BME280;10590;48.154;11.514;2023-04-22T11:47:43;95087.97;;;26.59;22.31
20860;BME280;10590;48.154;11.514;2023-04-22T11:53:14;95075.19;;;27.26;21.00
20860;BME280;10590;48.154;11.514;2023-04-22T11:58:38;95075.56;;;29.61;19.93
20860;BME280;10590;48.154;11.514;2023-04-22T12:04:00;95070.56;;;27.23;22.38
20860;BME280;10590;48.154;11.514;2023-04-22T12:09:24;95074.72;;;27.15;22.71
20860;BME280;10590;48.154;11.514;2023-04-22T12:14:47;95077.66;;;26.79;22.90
20860;BME280;10590;48.154;11.514;2023-04-22T12:20:10;95061.06;;;28.51;20.77
20860;BME280;10590;48.154;11.514;2023-04-22T12:25:34;95077.13;;;26.55;22.66
20860;BME280;10590;48.154;11.514;2023-04-22T12:30:55;95059.38;;;26.47;22.67
20860;BME280;10590;48.154;11.514;2023-04-22T12:36:18;95058.03;;;26.23;23.71
20860;BME280;10590;48.154;11.514;2023-04-22T12:41:41;95057.94;;;25.78;24.11
20860;BME280;10590;48.154;11.514;2023-04-22T12:47:03;95065.50;;;24.38;25.13
20860;BME280;10590;48.154;11.514;2023-04-22T12:52:25;95054.34;;;28.18;20.73
20860;BME280;10590;48.154;11.514;2023-04-22T12:57:48;95048.53;;;28.50;20.44
20860;BME280;10590;48.154;11.514;2023-04-22T13:03:10;95043.50;;;28.83;20.50
20860;BME280;10590;48.154;11.514;2023-04-22T13:08:31;95044.03;;;29.93;19.58
20860;BME280;10590;48.154;11.514;2023-04-22T13:13:54;95028.94;;;27.16;21.92
20860;BME280;10590;48.154;11.514;2023-04-22T13:19:16;95029.75;;;25.81;23.70
20860;BME280;10590;48.154;11.514;2023-04-22T13:24:38;95020.16;;;27.21;22.36
20860;BME280;10590;48.154;11.514;2023-04-22T13:30:02;95015.69;;;26.44;22.79
20860;BME280;10590;48.154;11.514;2023-04-22T13:35:23;95017.66;;;24.54;25.80
20860;BME280;10590;48.154;11.514;2023-04-22T13:40:45;95009.75;;;23.19;27.44
20860;BME280;10590;48.154;11.514;2023-04-22T13:46:08;95012.53;;;23.69;27.07
20860;BME280;10590;48.154;11.514;2023-04-22T13:51:30;95007.28;;;23.28;27.32
20860;BME280;10590;48.154;11.514;2023-04-22T13:56:52;95003.13;;;23.47;27.87
20860;BME280;10590;48.154;11.514;2023-04-22T14:02:15;94983.97;;;23.77;28.98
20860;BME280;10590;48.154;11.514;2023-04-22T14:07:37;94982.78;;;24.45;26.00
20860;BME280;10590;48.154;11.514;2023-04-22T14:12:59;94976.50;;;23.58;26.96
20860;BME280;10590;48.154;11.514;2023-04-22T14:18:22;94980.31;;;23.64;27.40
20860;BME280;10590;48.154;11.514;2023-04-22T14:23:43;94981.34;;;22.93;27.73
20860;BME280;10590;48.154;11.514;2023-04-22T14:29:05;94977.56;;;23.88;26.60
20860;BME280;10590;48.154;11.514;2023-04-22T14:34:28;94972.22;;;24.04;26.72
20860;BME280;10590;48.154;11.514;2023-04-22T14:39:50;94969.47;;;24.04;26.31
20860;BME280;10590;48.154;11.514;2023-04-22T14:45:11;94977.09;;;22.92;27.29
20860;BME280;10590;48.154;11.514;2023-04-22T14:50:35;94962.13;;;25.36;26.84
20860;BME280;10590;48.154;11.514;2023-04-22T14:55:56;94961.22;;;23.14;27.96
20860;BME280;10590;48.154;11.514;2023-04-22T15:01:18;94967.75;;;23.70;27.68
20860;BME280;10590;48.154;11.514;2023-04-22T15:06:42;94954.81;;;22.02;29.35
20860;BME280;10590;48.154;11.514;2023-04-22T15:12:03;94957.56;;;22.36;30.07
20860;BME280;10590;48.154;11.514;2023-04-22T15:17:26;94961.25;;;22.19;30.95
20860;BME280;10590;48.154;11.514;2023-04-22T15:22:51;94964.53;;;22.00;30.59
20860;BME280;10590;48.154;11.514;2023-04-22T15:28:14;94958.16;;;21.79;31.32
20860;BME280;10590;48.154;11.514;2023-04-22T15:33:35;94951.47;;;23.67;28.57
20860;BME280;10590;48.154;11.514;2023-04-22T15:38:59;94962.34;;;24.53;29.88
20860;BME280;10590;48.154;11.514;2023-04-22T15:44:22;94972.13;;;23.88;27.73
20860;BME280;10590;48.154;11.514;2023-04-22T15:49:44;94962.34;;;22.90;29.07
20860;BME280;10590;48.154;11.514;2023-04-22T15:55:07;94958.94;;;22.17;30.41
20860;BME280;10590;48.154;11.514;2023-04-22T16:00:29;94968.72;;;21.67;31.36
20860;BME280;10590;48.154;11.514;2023-04-22T16:05:50;94964.16;;;21.56;31.42
20860;BME280;10590;48.154;11.514;2023-04-22T16:11:14;94977.63;;;21.19;32.23
20860;BME280;10590;48.154;11.514;2023-04-22T16:16:37;94973.44;;;21.59;33.36
20860;BME280;10590;48.154;11.514;2023-04-22T16:21:59;94976.59;;;21.99;31.62
20860;BME280;10590;48.154;11.514;2023-04-22T16:27:22;94973.91;;;22.33;31.31
20860;BME280;10590;48.154;11.514;2023-04-22T16:32:44;94961.16;;;21.88;31.63
20860;BME280;10590;48.154;11.514;2023-04-22T16:38:05;94958.03;;;21.49;31.94
20860;BME280;10590;48.154;11.514;2023-04-22T16:43:28;94959.97;;;21.48;32.82
20860;BME280;10590;48.154;11.514;2023-04-22T16:48:50;94959.00;;;21.24;32.07
20860;BME280;10590;48.154;11.514;2023-04-22T16:54:11;94949.56;;;20.84;33.03
20860;BME280;10590;48.154;11.514;2023-04-22T16:59:34;94942.41;;;20.35;33.44
20860;BME280;10590;48.154;11.514;2023-04-22T17:04:56;94963.31;;;20.34;34.14
20860;BME280;10590;48.154;11.514;2023-04-22T17:10:20;94961.78;;;20.30;34.68
20860;BME280;10590;48.154;11.514;2023-04-22T17:15:43;94961.00;;;20.44;35.44
20860;BME280;10590;48.154;11.514;2023-04-22T17:21:05;94955.53;;;20.54;35.05
20860;BME280;10590;48.154;11.514;2023-04-22T17:26:26;94965.59;;;20.54;34.53
20860;BME280;10590;48.154;11.514;2023-04-22T17:31:49;94958.34;;;20.22;36.17
20860;BME280;10590;48.154;11.514;2023-04-22T17:37:11;94980.38;;;20.28;35.62
20860;BME280;10590;48.154;11.514;2023-04-22T17:42:33;94978.13;;;20.12;35.36
20860;BME280;10590;48.154;11.514;2023-04-22T17:47:56;94971.56;;;20.02;36.59
20860;BME280;10590;48.154;11.514;2023-04-22T17:53:18;94975.84;;;19.79;36.46
20860;BME280;10590;48.154;11.514;2023-04-22T17:58:40;94979.72;;;19.49;36.64
20860;BME280;10590;48.154;11.514;2023-04-22T18:04:03;94974.69;;;19.37;37.12
20860;BME280;10590;48.154;11.514;2023-04-22T18:09:24;94973.13;;;19.00;37.60
20860;BME280;10590;48.154;11.514;2023-04-22T18:14:46;94994.34;;;19.02;38.21
20860;BME280;10590;48.154;11.514;2023-04-22T18:20:10;94994.41;;;19.13;38.73
20860;BME280;10590;48.154;11.514;2023-04-22T18:25:33;94994.28;;;18.70;39.73
20860;BME280;10590;48.154;11.514;2023-04-22T18:30:55;94991.97;;;18.65;41.95
20860;BME280;10590;48.154;11.514;2023-04-22T18:36:18;94993.53;;;18.69;41.76
20860;BME280;10590;48.154;11.514;2023-04-22T18:41:40;95000.44;;;18.63;40.75
20860;BME280;10590;48.154;11.514;2023-04-22T18:47:02;95002.28;;;18.45;41.10
20860;BME280;10590;48.154;11.514;2023-04-22T18:52:26;95003.75;;;18.25;41.76
20860;BME280;10590;48.154;11.514;2023-04-22T18:57:47;95016.41;;;17.59;42.66
20860;BME280;10590;48.154;11.514;2023-04-22T19:03:09;95025.09;;;17.86;44.58
20860;BME280;10590;48.154;11.514;2023-04-22T19:08:34;95029.81;;;17.96;44.47
20860;BME280;10590;48.154;11.514;2023-04-22T19:13:55;95042.38;;;17.74;46.11
20860;BME280;10590;48.154;11.514;2023-04-22T19:19:17;95045.53;;;17.83;44.56
20860;BME280;10590;48.154;11.514;2023-04-22T19:24:40;95047.19;;;17.50;46.68
20860;BME280;10590;48.154;11.514;2023-04-22T19:30:01;95057.66;;;17.18;44.97
20860;BME280;10590;48.154;11.514;2023-04-22T19:35:23;95064.22;;;17.21;44.81
20860;BME280;10590;48.154;11.514;2023-04-22T19:40:47;95059.66;;;17.25;43.53
20860;BME280;10590;48.154;11.514;2023-04-22T19:46:09;95070.38;;;17.59;43.55
20860;BME280;10590;48.154;11.514;2023-04-22T19:51:31;95069.97;;;17.57;44.16
20860;BME280;10590;48.154;11.514;2023-04-22T19:56:55;95078.22;;;17.34;44.20
20860;BME280;10590;48.154;11.514;2023-04-22T20:02:17;95084.31;;;17.27;44.60
20860;BME280;10590;48.154;11.514;2023-04-22T20:07:40;95087.72;;;17.20;44.89
20860;BME280;10590;48.154;11.514;2023-04-22T20:13:05;95099.56;;;17.12;45.35
20860;BME280;10590;48.154;11.514;2023-04-22T20:18:27;95090.91;;;16.93;45.20
20860;BME280;10590;48.154;11.514;2023-04-22T20:23:49;95096.91;;;16.79;45.13
20860;BME280;10590;48.154;11.514;2023-04-22T20:29:15;95093.56;;;16.59;46.50
20860;BME280;10590;48.154;11.514;2023-04-22T20:34:37;95097.97;;;16.44;46.88
20860;BME280;10590;48.154;11.514;2023-04-22T20:40:00;95090.50;;;16.34;47.59
20860;BME280;10590;48.154;11.514;2023-04-22T20:45:25;95098.50;;;16.27;47.77
20860;BME280;10590;48.154;11.514;2023-04-22T20:50:47;95087.53;;;16.13;47.96
20860;BME280;10590;48.154;11.514;2023-04-22T20:56:08;95084.44;;;16.11;48.60
20860;BME280;10590;48.154;11.514;2023-04-22T21:01:31;95088.16;;;16.03;48.67
20860;BME280;10590;48.154;11.514;2023-04-22T21:06:54;95082.19;;;15.90;48.88
20860;BME280;10590;48.154;11.514;2023-04-22T21:12:16;95084.38;;;15.81;49.67
20860;BME280;10590;48.154;11.514;2023-04-22T21:17:44;95070.56;;;15.59;50.35
20860;BME280;10590;48.154;11.514;2023-04-22T21:23:12;95099.38;;;15.59;50.63
20860;BME280;10590;48.154;11.514;2023-04-22T21:28:34;95096.06;;;15.46;51.12
20860;BME280;10590;48.154;11.514;2023-04-22T21:33:57;95096.34;;;15.41;51.61
20860;BME280;10590;48.154;11.514;2023-04-22T21:39:23;95099.63;;;15.31;51.98
20860;BME280;10590;48.154;11.514;2023-04-22T21:44:45;95110.50;;;15.38;51.38
20860;BME280;10590;48.154;11.514;2023-04-22T21:50:10;95106.22;;;15.34;51.90
20860;BME280;10590;48.154;11.514;2023-04-22T21:55:32;95119.16;;;15.28;52.05
20860;BME280;10590;48.154;11.514;2023-04-22T22:00:54;95103.56;;;15.14;52.24
20860;BME280;10590;48.154;11.514;2023-04-22T22:06:17;95118.06;;;15.10;52.96
20860;BME280;10590;48.154;11.514;2023-04-22T22:11:39;95115.03;;;15.11;53.19
20860;BME280;10590;48.154;11.514;2023-04-22T22:17:00;95108.97;;;14.95;54.16
20860;BME280;10590;48.154;11.514;2023-04-22T22:22:24;95102.06;;;15.17;53.20
20860;BME280;10590;48.154;11.514;2023-04-22T22:27:47;95109.53;;;15.04;53.65
20860;BME280;10590;48.154;11.514;2023-04-22T22:33:09;95119.69;;;15.14;53.66
20860;BME280;10590;48.154;11.514;2023-04-22T22:38:32;95116.16;;;15.10;53.92
20860;BME280;10590;48.154;11.514;2023-04-22T22:43:55;95129.91;;;14.86;54.27
20860;BME280;10590;48.154;11.514;2023-04-22T22:49:17;95120.72;;;14.87;54.53
20860;BME280;10590;48.154;11.514;2023-04-22T22:54:40;95129.31;;;14.96;54.99
20860;BME280;10590;48.154;11.514;2023-04-22T23:00:02;95131.84;;;15.08;54.32
20860;BME280;10590;48.154;11.514;2023-04-22T23:05:26;95129.38;;;15.00;54.77
20860;BME280;10590;48.154;11.514;2023-04-22T23:10:49;95121.75;;;15.02;54.66
20860;BME280;10590;48.154;11.514;2023-04-22T23:16:11;95133.84;;;14.92;55.25
20860;BME280;10590;48.154;11.514;2023-04-22T23:21:33;95114.03;;;14.61;55.39
20860;BME280;10590;48.154;11.514;2023-04-22T23:26:57;95122.50;;;14.63;55.06
20860;BME280;10590;48.154;11.514;2023-04-22T23:32:20;95122.88;;;14.62;54.89
20860;BME280;10590;48.154;11.514;2023-04-22T23:37:42;95122.50;;;14.63;55.19
20860;BME280;10590;48.154;11.514;2023-04-22T23:43:06;95113.81;;;14.70;55.04
20860;BME280;10590;48.154;11.514;2023-04-22T23:48:28;95113.81;;;14.70;55.50
20860;BME280;10590;48.154;11.514;2023-04-22T23:53:50;95120.81;;;14.55;55.34
20860;BME280;10590;48.154;11.514;2023-04-22T23:59:13;95125.53;;;14.43;55.34
